Time;durP1;ratioP1;P1;durP2;ratioP2;P2;SDS_P1;SDS_P2;PMS_P1;PMS_P2;Temp;Humidity;BMP_temperature;BMP_pressure;BME280_temperature;BME280_humidity;BME280_pressure;Samples;Min_cycle;Max_cycle;Signal;HPM_P1;HPM_P2
2022/04/18 00:01:51;;;;;;;6.80;6.40;;;9.10;97.20;;;;;;5079764;28;20182;-65
2022/04/18 00:04:17;;;;;;;7.17;6.67;;;9.10;96.70;;;;;;5078888;28;20216;-64
2022/04/18 00:06:43;;;;;;;6.60;6.10;;;9.10;96.10;;;;;;5065904;28;20247;-65
2022/04/18 00:09:08;;;;;;;6.07;5.57;;;9.10;96.40;;;;;;5073732;28;20723;-65
2022/04/18 00:11:34;;;;;;;6.73;6.17;;;9.10;96.70;;;;;;5075300;28;20190;-65
2022/04/18 00:14:00;;;;;;;6.20;5.80;;;9.10;96.80;;;;;;5078742;28;20222;-65
2022/04/18 00:16:26;;;;;;;5.80;5.40;;;9.10;95.40;;;;;;5081463;28;20173;-65
2022/04/18 00:18:52;;;;;;;6.30;5.90;;;9.10;95.90;;;;;;5074772;28;20224;-65
2022/04/18 00:21:19;;;;;;;6.30;5.80;;;9.10;96.00;;;;;;5084305;28;20182;-65
2022/04/18 00:23:45;;;;;;;6.33;5.93;;;9.10;96.50;;;;;;5075266;28;20201;-65
2022/04/18 00:26:11;;;;;;;6.07;5.60;;;9.10;96.20;;;;;;5077687;28;20242;-66
2022/04/18 00:28:36;;;;;;;7.03;6.37;;;9.10;96.70;;;;;;5073783;28;20593;-65
2022/04/18 00:31:03;;;;;;;6.40;6.00;;;9.10;96.40;;;;;;5075048;28;20246;-65
2022/04/18 00:33:28;;;;;;;5.80;5.40;;;9.10;96.10;;;;;;5073788;28;20213;-65
2022/04/18 00:35:55;;;;;;;6.20;5.60;;;9.10;96.00;;;;;;5081704;28;20669;-64
2022/04/18 00:38:21;;;;;;;6.10;5.70;;;9.10;96.50;;;;;;5073526;28;20246;-65
2022/04/18 00:40:47;;;;;;;6.27;5.87;;;9.00;96.80;;;;;;5082964;28;20221;-64
2022/04/18 00:43:12;;;;;;;6.73;6.23;;;9.00;97.10;;;;;;5074327;28;20207;-64
2022/04/18 00:45:38;;;;;;;6.03;5.63;;;9.00;96.50;;;;;;5073789;28;20178;-64
2022/04/18 00:48:04;;;;;;;6.63;6.13;;;9.00;96.20;;;;;;5072920;28;20184;-65
2022/04/18 00:50:32;;;;;;;6.30;5.80;;;9.00;96.50;;;;;;5076490;28;20189;-66
2022/04/18 00:52:58;;;;;;;5.87;5.37;;;9.00;96.30;;;;;;5076923;28;20670;-65
2022/04/18 00:55:26;;;;;;;6.00;5.50;;;8.90;96.90;;;;;;5075485;28;20206;-65
2022/04/18 00:57:53;;;;;;;6.80;6.30;;;8.90;97.10;;;;;;5068199;28;20178;-65
2022/04/18 01:00:19;;;;;;;7.47;6.97;;;8.80;97.10;;;;;;5076807;28;20654;-66
2022/04/18 01:02:45;;;;;;;6.63;6.13;;;8.80;97.30;;;;;;5082937;28;20179;-65
2022/04/18 01:05:11;;;;;;;6.90;6.30;;;8.70;97.10;;;;;;5068013;28;20201;-63
2022/04/18 01:07:38;;;;;;;6.20;5.80;;;8.70;97.80;;;;;;5077653;28;20219;-65
2022/04/18 01:10:05;;;;;;;6.33;5.93;;;8.60;97.70;;;;;;5078630;28;20190;-65
2022/04/18 01:12:31;;;;;;;6.60;6.20;;;8.50;98.20;;;;;;5078819;28;20554;-64
2022/04/18 01:14:56;;;;;;;6.83;6.43;;;8.50;98.90;;;;;;5075059;28;20206;-65
2022/04/18 01:17:22;;;;;;;6.83;6.27;;;8.40;99.40;;;;;;5072225;28;20182;-66
2022/04/18 01:19:48;;;;;;;6.57;6.07;;;8.30;99.60;;;;;;5073855;28;20267;-65
2022/04/18 01:22:13;;;;;;;7.27;6.73;;;8.30;99.90;;;;;;5072821;28;20182;-64
2022/04/18 01:30:11;;;;;;;6.80;6.30;;;8.00;99.90;;;;;;5074084;28;20331;-64
2022/04/18 01:32:36;;;;;;;6.77;6.17;;;7.90;99.90;;;;;;5078985;28;20194;-65
2022/04/18 01:35:03;;;;;;;6.70;6.30;;;7.80;99.90;;;;;;5073184;28;20202;-65
2022/04/18 01:37:29;;;;;;;6.50;6.10;;;7.70;99.90;;;;;;5073176;28;20181;-65
2022/04/18 01:39:55;;;;;;;6.63;6.13;;;7.60;99.90;;;;;;5073338;28;20698;-65
2022/04/18 01:42:21;;;;;;;6.90;6.20;;;7.60;99.90;;;;;;5070834;28;20174;-65
2022/04/18 01:44:46;;;;;;;7.27;6.77;;;7.50;99.90;;;;;;5068146;28;110954;-65
2022/04/18 01:47:12;;;;;;;7.60;7.03;;;7.40;99.90;;;;;;5074102;28;20182;-63
2022/04/18 01:49:38;;;;;;;7.57;6.97;;;7.40;99.90;;;;;;5073715;28;20188;-64
2022/04/18 01:52:03;;;;;;;6.73;6.30;;;7.30;99.90;;;;;;5076072;28;20618;-65
2022/04/18 01:54:29;;;;;;;6.77;6.37;;;7.20;99.90;;;;;;5078335;28;20628;-65
2022/04/18 01:56:55;;;;;;;7.07;6.47;;;7.10;99.90;;;;;;5073327;28;20666;-66
2022/04/18 01:59:20;;;;;;;7.23;6.73;;;7.10;99.90;;;;;;5081232;28;20236;-67
2022/04/18 02:01:46;;;;;;;8.33;7.63;;;7.00;99.90;;;;;;5079758;28;20174;-66
2022/04/18 02:04:11;;;;;;;8.00;7.40;;;6.90;99.90;;;;;;5076904;28;20194;-66
2022/04/18 02:06:37;;;;;;;8.03;7.53;;;6.80;99.90;;;;;;5072052;28;20182;-66
2022/04/18 02:09:03;;;;;;;7.50;7.00;;;6.80;99.90;;;;;;5078192;28;20299;-66
2022/04/18 02:11:28;;;;;;;7.10;6.60;;;6.70;99.90;;;;;;5072000;28;20204;-65
2022/04/18 02:13:55;;;;;;;6.77;6.37;;;6.60;99.90;;;;;;5074680;28;20205;-66
2022/04/18 02:16:21;;;;;;;7.17;6.77;;;6.60;99.90;;;;;;5072171;28;20203;-65
2022/04/18 02:18:47;;;;;;;8.27;7.67;;;6.60;99.90;;;;;;5075359;28;20202;-65
2022/04/18 02:21:12;;;;;;;7.40;6.70;;;6.50;99.90;;;;;;5083699;28;20182;-66
2022/04/18 02:23:42;;;;;;;7.00;6.50;;;6.40;99.90;;;;;;5071888;28;20202;-66
2022/04/18 02:26:08;;;;;;;7.30;6.80;;;6.50;99.90;;;;;;5086995;28;20177;-66
2022/04/18 02:28:34;;;;;;;7.67;6.90;;;6.50;99.90;;;;;;5080559;28;20651;-66
2022/04/18 02:30:59;;;;;;;7.13;6.63;;;6.50;99.90;;;;;;5072018;28;20270;-66
2022/04/18 02:33:25;;;;;;;7.80;7.30;;;6.40;99.90;;;;;;5080065;28;20651;-64
2022/04/18 02:35:50;;;;;;;7.40;6.90;;;6.40;99.90;;;;;;5084915;28;20205;-66
2022/04/18 02:38:17;;;;;;;7.37;6.87;;;6.40;99.90;;;;;;5088704;28;20714;-66
2022/04/18 02:40:43;;;;;;;7.70;7.20;;;6.40;99.90;;;;;;5092774;28;20219;-66
2022/04/18 02:43:09;;;;;;;7.20;6.60;;;6.40;99.90;;;;;;5085404;28;20182;-65
2022/04/18 02:45:35;;;;;;;6.97;6.57;;;6.30;99.90;;;;;;5072489;28;20223;-66
2022/04/18 02:48:01;;;;;;;6.87;6.40;;;6.30;99.90;;;;;;5074946;28;20181;-65
2022/04/18 02:50:27;;;;;;;6.90;6.30;;;6.30;99.90;;;;;;5076054;28;20180;-66
2022/04/18 02:52:53;;;;;;;6.87;6.37;;;6.30;99.90;;;;;;5080156;28;20614;-65
2022/04/18 02:55:19;;;;;;;6.80;6.40;;;6.30;99.90;;;;;;5092540;28;20272;-66
2022/04/18 02:57:45;;;;;;;6.60;6.17;;;6.20;99.90;;;;;;5088870;28;20260;-66
2022/04/18 03:00:12;;;;;;;6.67;6.27;;;6.20;99.90;;;;;;5079917;28;20230;-65
2022/04/18 03:02:39;;;;;;;6.70;6.30;;;6.10;99.90;;;;;;5073777;28;20224;-66
2022/04/18 03:05:07;;;;;;;6.87;6.37;;;6.10;99.90;;;;;;5065402;28;20206;-66
2022/04/18 03:07:33;;;;;;;7.17;6.70;;;6.00;99.90;;;;;;5069968;28;20181;-66
2022/04/18 03:09:59;;;;;;;7.20;6.70;;;6.00;99.90;;;;;;5083224;28;20607;-66
2022/04/18 03:12:25;;;;;;;6.70;6.20;;;5.90;99.90;;;;;;5076914;28;20275;-66
2022/04/18 03:14:51;;;;;;;7.53;6.93;;;5.90;99.90;;;;;;5081832;28;20209;-66
2022/04/18 03:17:17;;;;;;;7.73;7.23;;;5.90;99.90;;;;;;5079638;28;20612;-66
2022/04/18 03:19:43;;;;;;;7.13;6.63;;;5.80;99.90;;;;;;5075234;28;20209;-67
2022/04/18 03:22:09;;;;;;;7.50;7.10;;;5.70;99.90;;;;;;5071929;28;20190;-66
2022/04/18 03:24:35;;;;;;;7.20;6.70;;;5.70;99.90;;;;;;5069724;28;20193;-65
2022/04/18 03:27:04;;;;;;;7.40;6.70;;;5.70;99.90;;;;;;5091022;28;20660;-64
2022/04/18 03:29:31;;;;;;;7.53;6.93;;;5.70;99.90;;;;;;5075403;28;20704;-66
2022/04/18 03:31:57;;;;;;;7.10;6.60;;;5.70;99.90;;;;;;5079138;28;20229;-66
2022/04/18 03:34:24;;;;;;;7.70;7.00;;;5.60;99.90;;;;;;5079522;28;20197;-66
2022/04/18 03:39:53;;;;;;;7.10;6.60;;;5.50;99.90;;;;;;5070792;28;20216;-66
2022/04/18 03:42:28;;;;;;;6.80;6.40;;;5.40;99.90;;;;;;5073641;28;20636;-65
2022/04/18 03:44:55;;;;;;;7.20;6.60;;;5.40;99.90;;;;;;5066102;28;20224;-65
2022/04/18 03:47:20;;;;;;;7.90;7.30;;;5.30;99.90;;;;;;5083383;28;20180;-65
2022/04/18 03:49:46;;;;;;;7.77;7.17;;;5.30;99.90;;;;;;5082774;28;20244;-65
2022/04/18 03:52:12;;;;;;;7.47;6.97;;;5.20;99.90;;;;;;5088551;28;20197;-64
2022/04/18 03:54:40;;;;;;;7.50;7.00;;;5.20;99.90;;;;;;5077110;28;20267;-65
2022/04/18 03:57:06;;;;;;;7.53;6.93;;;5.10;99.90;;;;;;5062223;28;20186;-65
2022/04/18 03:59:32;;;;;;;7.93;7.33;;;5.10;99.90;;;;;;5061106;28;20194;-65
2022/04/18 04:01:58;;;;;;;7.37;6.93;;;5.10;99.90;;;;;;5085057;28;20517;-65
2022/04/18 04:04:25;;;;;;;7.27;6.80;;;5.10;99.90;;;;;;5088278;28;20205;-65
2022/04/18 04:06:50;;;;;;;8.20;7.60;;;5.10;99.90;;;;;;5091374;28;20170;-65
2022/04/18 04:09:16;;;;;;;7.20;6.70;;;5.00;99.90;;;;;;5084202;28;20239;-64
2022/04/18 04:11:41;;;;;;;15.43;8.00;;;5.00;99.90;;;;;;5087484;28;20549;-64
2022/04/18 04:14:07;;;;;;;7.77;7.17;;;5.00;99.90;;;;;;5083736;28;20206;-65
2022/04/18 04:16:33;;;;;;;7.50;7.00;;;5.00;99.90;;;;;;5085322;28;20177;-65
2022/04/18 04:18:58;;;;;;;7.47;6.97;;;5.00;99.90;;;;;;5082593;28;20204;-64
2022/04/18 04:21:24;;;;;;;7.77;7.27;;;5.00;99.90;;;;;;5079478;28;20240;-64
2022/04/18 04:23:49;;;;;;;7.70;7.10;;;4.90;99.90;;;;;;5083783;28;20190;-65
2022/04/18 04:26:15;;;;;;;7.87;7.23;;;4.90;99.90;;;;;;5087014;28;20181;-65
2022/04/18 04:28:41;;;;;;;7.60;7.10;;;4.80;99.90;;;;;;5077154;28;20200;-65
2022/04/18 04:31:07;;;;;;;7.53;7.13;;;4.80;99.90;;;;;;5080435;28;20197;-65
2022/04/18 04:33:32;;;;;;;7.10;6.60;;;4.80;99.90;;;;;;5067071;28;20198;-63
2022/04/18 04:35:58;;;;;;;8.93;7.17;;;4.80;99.90;;;;;;5079367;28;20245;-65
2022/04/18 04:38:27;;;;;;;7.60;7.00;;;4.80;99.90;;;;;;5073322;28;20569;-65
2022/04/18 04:40:54;;;;;;;7.77;7.27;;;4.80;99.90;;;;;;5086401;28;20166;-64
2022/04/18 04:43:20;;;;;;;7.20;6.70;;;4.90;99.90;;;;;;5074751;28;20174;-65
2022/04/18 04:45:46;;;;;;;8.00;7.47;;;4.90;99.90;;;;;;5081512;28;20265;-65
2022/04/18 04:48:11;;;;;;;7.13;6.67;;;4.90;99.90;;;;;;5070333;28;20269;-64
2022/04/18 04:50:39;;;;;;;7.93;7.23;;;4.90;99.90;;;;;;5074946;28;20598;-65
2022/04/18 04:53:05;;;;;;;8.33;7.83;;;4.90;99.90;;;;;;5075270;28;20236;-65
2022/04/18 04:55:31;;;;;;;9.00;8.30;;;4.80;99.90;;;;;;5077794;28;20198;-65
2022/04/18 04:57:56;;;;;;;10.83;9.63;;;4.90;99.90;;;;;;5079539;28;20173;-65
2022/04/18 05:00:22;;;;;;;9.07;8.27;;;4.90;99.90;;;;;;5081837;28;20242;-65
2022/04/18 05:02:47;;;;;;;9.40;8.50;;;5.10;99.90;;;;;;5071061;28;20170;-64
2022/04/18 05:05:14;;;;;;;9.43;8.53;;;5.10;99.90;;;;;;5075862;28;20216;-66
2022/04/18 05:07:39;;;;;;;57.77;29.07;;;5.20;99.90;;;;;;5074863;28;20289;-64
2022/04/18 05:10:06;;;;;;;44.33;22.77;;;5.20;99.90;;;;;;5083129;28;20261;-67
2022/04/18 05:12:32;;;;;;;16.80;12.03;;;5.30;99.90;;;;;;5074392;28;20200;-65
2022/04/18 05:15:05;;;;;;;9.40;8.50;;;5.30;99.90;;;;;;5074405;28;20229;-64
2022/04/18 05:17:31;;;;;;;9.10;7.97;;;5.40;99.90;;;;;;5078379;28;20204;-66
2022/04/18 05:19:57;;;;;;;8.10;7.40;;;5.40;99.90;;;;;;5093320;28;20673;-65
2022/04/18 05:22:23;;;;;;;9.00;7.57;;;5.50;99.90;;;;;;5075595;28;20174;-65
2022/04/18 05:24:49;;;;;;;8.20;7.60;;;5.60;99.90;;;;;;5070758;28;20198;-64
2022/04/18 05:27:15;;;;;;;7.77;7.10;;;5.60;99.90;;;;;;5072942;28;20247;-65
2022/04/18 05:29:42;;;;;;;7.33;6.83;;;5.70;99.90;;;;;;5078075;28;20193;-65
2022/04/18 05:32:08;;;;;;;8.73;7.00;;;5.70;99.90;;;;;;5080138;28;20561;-64
2022/04/18 05:34:34;;;;;;;7.60;7.03;;;5.80;99.90;;;;;;5067222;28;20210;-64
2022/04/18 05:36:59;;;;;;;7.53;7.00;;;5.90;99.90;;;;;;5076802;28;20277;-65
2022/04/18 05:39:26;;;;;;;7.17;6.67;;;6.00;99.90;;;;;;5068853;28;20699;-65
2022/04/18 05:41:51;;;;;;;7.70;7.10;;;6.10;99.90;;;;;;5073374;28;20179;-66
2022/04/18 05:44:17;;;;;;;7.47;7.00;;;6.20;99.90;;;;;;5080807;28;20258;-65
2022/04/18 05:46:43;;;;;;;7.10;6.60;;;6.30;99.90;;;;;;5079736;28;20237;-65
2022/04/18 05:49:08;;;;;;;7.53;7.00;;;6.50;99.90;;;;;;5073517;28;20185;-64
2022/04/18 05:51:36;;;;;;;8.57;7.70;;;6.50;99.90;;;;;;5075775;28;20239;-66
2022/04/18 05:54:03;;;;;;;6.77;6.40;;;6.60;99.90;;;;;;5078358;28;20274;-65
2022/04/18 05:56:29;;;;;;;7.33;6.80;;;6.70;99.90;;;;;;5072853;28;20189;-65
2022/04/18 05:58:55;;;;;;;7.50;7.00;;;6.90;99.90;;;;;;5069642;28;20587;-66
2022/04/18 06:01:21;;;;;;;7.70;7.10;;;7.20;99.90;;;;;;5065298;28;20191;-65
2022/04/18 06:03:47;;;;;;;6.57;6.17;;;7.60;99.90;;;;;;5067316;28;20198;-64
2022/04/18 06:06:14;;;;;;;6.53;6.13;;;8.10;99.90;;;;;;5065950;28;20186;-64
2022/04/18 06:08:40;;;;;;;7.67;7.03;;;8.70;99.90;;;;;;5068930;28;20253;-64
2022/04/18 06:11:05;;;;;;;7.90;7.20;;;9.20;99.90;;;;;;5074412;28;20208;-64
2022/04/18 06:13:31;;;;;;;6.33;5.83;;;9.70;99.90;;;;;;5071616;28;20737;-64
2022/04/18 06:15:57;;;;;;;6.13;5.70;;;10.20;99.90;;;;;;5065756;28;20198;-64
2022/04/18 06:18:23;;;;;;;6.03;5.53;;;10.70;99.90;;;;;;5066127;28;20643;-65
2022/04/18 06:20:48;;;;;;;6.40;5.90;;;11.20;99.90;;;;;;5074477;28;20231;-65
2022/04/18 06:23:17;;;;;;;6.37;5.83;;;11.60;99.90;;;;;;5072015;28;20201;-65
2022/04/18 06:25:43;;;;;;;5.93;5.53;;;12.00;99.90;;;;;;5078293;28;20178;-65
2022/04/18 06:28:10;;;;;;;5.77;5.30;;;12.40;99.90;;;;;;5074221;28;20539;-66
2022/04/18 06:30:36;;;;;;;6.10;5.50;;;12.80;99.90;;;;;;5064699;28;20716;-64
2022/04/18 06:33:01;;;;;;;5.40;5.00;;;13.20;99.90;;;;;;5068249;28;20209;-65
2022/04/18 06:35:27;;;;;;;6.27;5.73;;;13.40;99.90;;;;;;5066482;28;20237;-64
2022/04/18 06:37:53;;;;;;;5.40;4.90;;;13.60;99.90;;;;;;5065192;28;20678;-64
2022/04/18 06:40:18;;;;;;;5.37;4.97;;;13.80;99.90;;;;;;5068482;28;20202;-64
2022/04/18 06:42:44;;;;;;;6.27;5.67;;;14.00;99.90;;;;;;5061518;28;20521;-64
2022/04/18 06:45:09;;;;;;;5.83;5.37;;;14.20;99.90;;;;;;5066513;28;20244;-65
2022/04/18 06:47:35;;;;;;;5.57;5.17;;;14.50;99.90;;;;;;5063900;28;20639;-65
2022/04/18 06:50:02;;;;;;;5.60;5.10;;;14.80;99.90;;;;;;5063012;28;20178;-65
2022/04/18 06:52:27;;;;;;;5.23;4.83;;;15.00;99.90;;;;;;5065796;28;20194;-64
2022/04/18 06:54:53;;;;;;;5.40;5.00;;;15.40;99.90;;;;;;5069090;28;20209;-64
2022/04/18 06:57:18;;;;;;;5.77;5.10;;;15.60;99.90;;;;;;5064884;28;20197;-64
2022/04/18 06:59:46;;;;;;;5.13;4.73;;;15.70;99.90;;;;;;5067581;28;20206;-64
2022/04/18 07:02:11;;;;;;;5.00;4.50;;;15.60;99.90;;;;;;5063982;28;20619;-63
2022/04/18 07:04:37;;;;;;;4.90;4.50;;;15.70;99.90;;;;;;5062819;28;20221;-64
2022/04/18 07:07:05;;;;;;;5.40;4.87;;;15.90;99.90;;;;;;5071396;28;20167;-63
2022/04/18 07:09:31;;;;;;;4.40;4.10;;;16.20;99.90;;;;;;5069943;28;20201;-64
2022/04/18 07:11:56;;;;;;;5.20;4.80;;;16.60;99.90;;;;;;5066143;28;20562;-65
2022/04/18 07:14:22;;;;;;;5.30;4.90;;;16.80;99.90;;;;;;5067082;28;20206;-65
2022/04/18 07:16:49;;;;;;;4.47;4.17;;;16.90;99.90;;;;;;5070880;28;20276;-64
2022/04/18 07:19:14;;;;;;;4.47;4.27;;;17.00;99.90;;;;;;5071378;28;20206;-65
2022/04/18 07:21:41;;;;;;;4.93;4.40;;;17.10;99.90;;;;;;5069345;28;20187;-65
2022/04/18 07:24:07;;;;;;;4.33;4.03;;;17.30;99.90;;;;;;5064166;28;20203;-65
2022/04/18 07:26:33;;;;;;;4.43;4.20;;;17.50;99.30;;;;;;5062744;28;20281;-65
2022/04/18 07:28:58;;;;;;;4.37;4.07;;;17.40;97.60;;;;;;5068048;28;20239;-65
2022/04/18 07:31:24;;;;;;;4.77;4.30;;;17.30;97.30;;;;;;5071547;28;20593;-65
2022/04/18 07:33:50;;;;;;;4.90;4.50;;;17.40;97.30;;;;;;5073484;28;20210;-65
2022/04/18 07:36:16;;;;;;;4.87;4.37;;;17.50;96.90;;;;;;5066318;28;20202;-64
2022/04/18 07:38:51;;;;;;;4.50;4.20;;;17.50;96.90;;;;;;5073059;28;20251;-65
2022/04/18 07:41:23;;;;;;;5.15;4.85;;;17.40;96.90;;;;;;5070360;28;20175;-64
2022/04/18 07:43:49;;;;;;;5.33;4.83;;;17.50;98.40;;;;;;5079737;28;20722;-64
2022/04/18 07:46:16;;;;;;;4.23;3.93;;;17.70;98.10;;;;;;5064576;28;20191;-65
2022/04/18 07:48:42;;;;;;;4.50;4.10;;;17.90;97.70;;;;;;5067677;28;20227;-65
2022/04/18 07:53:52;;;;;;;4.68;4.07;;;18.40;96.20;;;;;;5072292;28;20217;-64
2022/04/18 07:56:20;;;;;;;4.35;4.00;;;18.60;96.20;;;;;;5074970;28;20178;-66
2022/04/18 07:58:46;;;;;;;4.90;4.40;;;18.90;96.40;;;;;;5069014;28;20296;-65
2022/04/18 08:01:11;;;;;;;5.35;4.85;;;19.10;95.90;;;;;;5077916;28;20581;-65
2022/04/18 08:03:37;;;;;;;5.10;4.70;;;19.20;95.00;;;;;;5067772;28;20288;-66
2022/04/18 08:06:03;;;;;;;5.22;4.72;;;19.00;94.60;;;;;;5076174;28;20175;-66
2022/04/18 08:08:30;;;;;;;4.97;4.68;;;18.90;93.90;;;;;;5067036;28;20562;-66
2022/04/18 08:10:57;;;;;;;6.78;5.85;;;18.70;93.60;;;;;;5075218;28;20174;-66
2022/04/18 08:13:23;;;;;;;4.53;4.22;;;18.50;94.10;;;;;;5069568;28;20186;-66
2022/04/18 08:15:48;;;;;;;5.18;4.80;;;18.50;93.40;;;;;;5061717;28;20179;-65
2022/04/18 08:18:14;;;;;;;4.90;4.60;;;18.60;96.20;;;;;;5072179;28;20170;-66
2022/04/18 08:20:40;;;;;;;4.90;4.50;;;19.10;95.80;;;;;;5070876;28;20193;-66
2022/04/18 08:23:05;;;;;;;4.50;4.20;;;19.70;95.10;;;;;;5070862;28;20227;-66
2022/04/18 08:25:31;;;;;;;5.40;4.90;;;20.00;93.00;;;;;;5074082;28;20194;-65
2022/04/18 08:27:57;;;;;;;4.43;4.07;;;19.70;92.50;;;;;;5074399;28;20648;-66
2022/04/18 08:30:22;;;;;;;4.22;3.90;;;19.70;94.20;;;;;;5071971;28;20530;-65
2022/04/18 08:32:48;;;;;;;5.00;4.45;;;19.80;92.30;;;;;;5069673;28;20190;-65
2022/04/18 08:35:14;;;;;;;4.60;4.30;;;19.90;93.40;;;;;;5062240;28;20699;-65
2022/04/18 08:37:40;;;;;;;4.30;3.95;;;19.70;91.00;;;;;;5072736;28;20178;-65
2022/04/18 08:40:09;;;;;;;5.03;4.50;;;19.90;93.40;;;;;;5076667;28;20201;-65
2022/04/18 08:42:39;;;;;;;4.68;4.28;;;20.30;94.20;;;;;;5074136;28;20206;-65
2022/04/18 08:45:10;;;;;;;4.57;4.28;;;20.60;92.30;;;;;;5068428;28;20220;-65
2022/04/18 08:53:09;;;;;;;4.85;4.00;;;20.90;92.10;;;;;;5066108;28;20269;-65
2022/04/18 08:55:35;;;;;;;5.20;3.95;;;20.80;90.60;;;;;;5058386;28;20183;-65
2022/04/18 08:58:01;;;;;;;4.70;4.30;;;20.70;92.30;;;;;;5075819;28;20525;-65
2022/04/18 09:00:27;;;;;;;5.75;4.20;;;21.10;92.30;;;;;;5071894;28;20187;-65
2022/04/18 09:02:56;;;;;;;4.38;3.97;;;21.50;92.60;;;;;;5062508;28;20211;-65
2022/04/18 09:05:21;;;;;;;4.30;3.90;;;21.50;89.60;;;;;;5068957;28;20209;-65
2022/04/18 09:08:02;;;;;;;4.70;4.30;;;21.60;87.50;;;;;;5071308;28;20178;-65
2022/04/18 09:10:29;;;;;;;6.00;4.38;;;21.80;91.40;;;;;;5070030;28;20281;-65
2022/04/18 09:13:03;;;;;;;4.63;4.25;;;22.20;91.10;;;;;;5070049;28;20182;-65
2022/04/18 09:15:48;;;;;;;4.90;4.50;;;22.40;88.30;;;;;;5065200;28;20225;-65
2022/04/18 09:18:19;;;;;;;4.30;4.00;;;22.50;89.50;;;;;;5067354;28;20185;-65
2022/04/18 09:20:45;;;;;;;5.63;5.13;;;22.40;89.10;;;;;;5067811;28;20819;-65
2022/04/18 09:23:26;;;;;;;5.10;4.00;;;22.20;89.40;;;;;;5072313;28;20588;-65
2022/04/18 09:26:09;;;;;;;4.72;4.10;;;22.40;90.20;;;;;;5062128;28;20261;-65
2022/04/18 09:28:40;;;;;;;4.65;4.03;;;22.90;88.60;;;;;;5074269;28;20177;-65
2022/04/18 09:31:13;;;;;;;4.28;3.97;;;23.10;86.00;;;;;;5076616;28;20239;-65
2022/04/18 09:33:45;;;;;;;3.90;3.60;;;23.50;88.40;;;;;;5060058;28;20218;-65
2022/04/18 09:36:11;;;;;;;4.00;3.70;;;23.70;89.40;;;;;;5067745;28;20190;-65
2022/04/18 09:38:49;;;;;;;4.00;3.60;;;23.70;88.50;;;;;;5066475;28;20281;-64
2022/04/18 09:41:20;;;;;;;4.10;3.80;;;23.40;82.50;;;;;;5064384;28;20216;-64
2022/04/18 09:43:48;;;;;;;4.50;4.10;;;23.30;84.50;;;;;;5083861;22;21193;-64
2022/04/18 09:46:15;;;;;;;4.43;4.03;;;23.50;88.80;;;;;;5064296;28;20209;-64
2022/04/18 09:48:42;;;;;;;4.60;4.28;;;24.00;84.70;;;;;;5052048;28;20200;-63
2022/04/18 09:51:10;;;;;;;5.72;4.55;;;24.00;86.50;;;;;;5062226;28;20273;-64
2022/04/18 09:53:38;;;;;;;5.25;4.20;;;24.40;86.20;;;;;;5063179;28;20636;-65
2022/04/18 09:56:05;;;;;;;5.05;4.00;;;24.90;80.80;;;;;;5058200;28;20182;-65
2022/04/18 09:58:32;;;;;;;5.30;4.13;;;25.20;82.00;;;;;;5064135;28;20261;-65
2022/04/18 10:01:01;;;;;;;4.43;4.13;;;25.60;81.00;;;;;;5069902;28;20166;-65
2022/04/18 10:03:27;;;;;;;4.38;3.97;;;25.40;82.10;;;;;;5069851;28;20224;-65
2022/04/18 10:05:55;;;;;;;6.07;4.45;;;25.00;83.40;;;;;;5070922;28;20194;-64
2022/04/18 10:08:21;;;;;;;4.50;4.10;;;24.80;77.40;;;;;;5053569;28;20181;-65
2022/04/18 10:10:47;;;;;;;4.72;4.18;;;25.00;81.30;;;;;;5065150;28;20207;-65
2022/04/18 10:13:13;;;;;;;4.55;4.25;;;25.50;76.60;;;;;;5067729;28;20597;-65
2022/04/18 10:15:39;;;;;;;4.70;4.30;;;25.80;81.90;;;;;;5061294;28;20204;-64
2022/04/18 10:18:07;;;;;;;4.43;4.10;;;25.80;73.90;;;;;;5070837;28;20173;-64
2022/04/18 10:20:51;;;;;;;4.90;4.40;;;25.80;77.10;;;;;;5071115;28;20174;-64
2022/04/18 10:23:31;;;;;;;4.93;4.53;;;25.50;77.60;;;;;;5051394;28;20595;-64
2022/04/18 10:25:59;;;;;;;4.93;4.53;;;25.60;75.40;;;;;;5067509;28;20247;-64
2022/04/18 10:28:30;;;;;;;4.47;4.07;;;25.10;74.80;;;;;;5071641;28;20644;-64
2022/04/18 10:30:59;;;;;;;4.20;3.90;;;25.00;73.50;;;;;;5070819;28;20433;-64
2022/04/18 10:33:26;;;;;;;4.45;4.05;;;25.40;73.90;;;;;;5070453;28;20170;-64
2022/04/18 10:35:54;;;;;;;4.65;3.80;;;25.40;72.90;;;;;;5070559;28;20233;-64
2022/04/18 10:38:27;;;;;;;5.78;4.03;;;25.50;71.50;;;;;;5066471;28;20604;-65
2022/04/18 10:44:01;;;;;;;4.28;3.97;;;25.70;67.80;;;;;;5071380;28;20264;-64
2022/04/18 10:46:27;;;;;;;4.15;3.83;;;25.10;65.50;;;;;;5069847;28;20182;-65
2022/04/18 10:49:13;;;;;;;4.25;3.95;;;25.20;66.70;;;;;;5052130;28;20182;-65
2022/04/18 10:51:40;;;;;;;4.40;4.10;;;25.50;68.00;;;;;;5071167;28;20174;-65
2022/04/18 10:54:15;;;;;;;4.47;4.07;;;26.00;65.20;;;;;;5070557;28;20210;-64
2022/04/18 10:56:52;;;;;;;4.70;4.30;;;25.80;65.90;;;;;;5061951;28;20200;-64
2022/04/18 10:59:26;;;;;;;4.07;3.78;;;25.70;64.90;;;;;;5070746;28;20278;-64
2022/04/18 11:01:54;;;;;;;5.25;3.92;;;25.30;66.50;;;;;;5070650;28;20195;-64
2022/04/18 11:04:25;;;;;;;4.95;4.45;;;25.10;61.30;;;;;;5070829;28;20198;-64
2022/04/18 11:06:56;;;;;;;5.30;4.15;;;24.70;60.60;;;;;;5070963;28;20666;-65
2022/04/18 11:09:23;;;;;;;4.22;3.80;;;24.50;64.50;;;;;;5070656;28;20558;-64
2022/04/18 11:12:12;;;;;;;4.10;3.80;;;24.50;64.30;;;;;;5071257;28;20192;-64
2022/04/18 11:14:43;;;;;;;4.28;3.97;;;25.00;68.40;;;;;;5073720;28;20197;-64
2022/04/18 11:17:11;;;;;;;4.70;4.22;;;25.20;60.30;;;;;;5070667;28;20182;-64
2022/04/18 11:19:39;;;;;;;4.50;4.07;;;25.10;62.80;;;;;;5067798;28;20232;-64
2022/04/18 11:22:16;;;;;;;4.40;4.05;;;24.70;56.30;;;;;;5074907;28;20206;-64
2022/04/18 11:24:51;;;;;;;6.20;3.72;;;24.80;67.90;;;;;;5074262;28;20558;-64
2022/04/18 11:27:26;;;;;;;4.60;3.97;;;24.90;59.60;;;;;;5074693;28;20185;-64
2022/04/18 11:30:00;;;;;;;4.38;3.97;;;25.00;64.40;;;;;;5074663;28;20646;-64
2022/04/18 11:32:28;;;;;;;4.30;4.00;;;24.80;57.20;;;;;;5074760;28;20653;-64
2022/04/18 11:34:56;;;;;;;5.38;4.00;;;25.10;64.10;;;;;;5073826;28;20202;-64
2022/04/18 11:37:24;;;;;;;4.68;4.28;;;25.60;66.00;;;;;;5074929;28;20188;-65
2022/04/18 11:40:01;;;;;;;4.72;4.28;;;25.70;61.60;;;;;;5075514;28;20300;-65
2022/04/18 11:42:29;;;;;;;4.43;4.13;;;25.70;66.00;;;;;;5081563;28;20178;-64
2022/04/18 11:45:00;;;;;;;4.45;4.10;;;25.80;57.00;;;;;;5075530;28;20205;-64
2022/04/18 11:47:29;;;;;;;4.00;3.70;;;25.60;60.90;;;;;;5056239;28;20174;-64
2022/04/18 11:50:01;;;;;;;4.28;3.97;;;25.50;60.30;;;;;;5073965;28;20236;-64
2022/04/18 11:52:28;;;;;;;4.22;3.83;;;25.60;59.60;;;;;;5072069;28;20178;-65
2022/04/18 11:55:01;;;;;;;4.30;4.00;;;25.50;58.20;;;;;;5073934;28;20212;-64
2022/04/18 11:57:28;;;;;;;3.95;3.70;;;25.30;60.30;;;;;;5073678;28;20179;-64
2022/04/18 11:59:55;;;;;;;4.28;3.97;;;25.40;61.90;;;;;;5074106;28;20229;-64
2022/04/18 12:07:58;;;;;;;3.92;3.63;;;26.40;68.00;;;;;;5066931;28;20303;-64
2022/04/18 12:10:26;;;;;;;3.65;3.35;;;26.50;66.60;;;;;;5074333;28;20690;-64
2022/04/18 12:12:53;;;;;;;4.00;3.70;;;27.20;63.50;;;;;;5073790;28;20183;-64
2022/04/18 12:15:24;;;;;;;4.20;3.90;;;27.20;59.10;;;;;;5072434;28;20658;-64
2022/04/18 12:17:51;;;;;;;3.90;3.60;;;26.30;57.90;;;;;;5074001;28;20212;-64
2022/04/18 12:20:25;;;;;;;4.40;4.10;;;26.40;61.00;;;;;;5073252;28;20231;-64
2022/04/18 12:22:53;;;;;;;4.50;4.10;;;26.40;58.50;;;;;;5073769;28;20563;-63
2022/04/18 12:25:23;;;;;;;4.22;3.83;;;26.70;61.90;;;;;;5071527;28;20282;-64
2022/04/18 12:27:49;;;;;;;3.90;3.60;;;26.90;59.70;;;;;;5073838;28;20182;-64
2022/04/18 12:30:16;;;;;;;3.53;3.33;;;27.20;60.00;;;;;;5078114;28;20239;-64
2022/04/18 12:32:44;;;;;;;4.10;3.75;;;27.00;58.00;;;;;;5073773;28;20669;-63
2022/04/18 12:35:10;;;;;;;4.03;3.72;;;26.60;59.50;;;;;;5072726;28;20206;-64
2022/04/18 12:37:36;;;;;;;3.80;3.60;;;26.70;62.60;;;;;;5071683;28;20682;-64
2022/04/18 12:40:16;;;;;;;3.55;3.25;;;27.10;58.50;;;;;;5067806;28;20245;-64
2022/04/18 12:42:50;;;;;;;4.65;4.25;;;27.50;59.60;;;;;;5048963;28;20178;-64
2022/04/18 12:45:16;;;;;;;5.13;3.85;;;27.40;57.60;;;;;;5067399;28;20220;-64
2022/04/18 12:47:41;;;;;;;3.90;3.60;;;27.30;62.20;;;;;;5073116;28;20560;-64
2022/04/18 12:50:09;;;;;;;3.80;3.50;;;27.30;55.80;;;;;;5065106;28;20193;-64
2022/04/18 12:52:44;;;;;;;4.32;4.03;;;27.20;60.70;;;;;;5071326;28;20182;-64
2022/04/18 12:55:10;;;;;;;4.20;3.90;;;27.10;57.30;;;;;;5072903;28;20205;-64
2022/04/18 12:57:35;;;;;;;4.07;3.22;;;27.10;60.80;;;;;;5073230;28;20178;-64
2022/04/18 13:00:14;;;;;;;6.10;3.85;;;26.90;58.10;;;;;;5070751;28;20217;-64
2022/04/18 13:02:55;;;;;;;4.35;4.05;;;26.40;58.20;;;;;;5073184;28;20653;-64
2022/04/18 13:05:31;;;;;;;3.85;3.47;;;26.40;57.10;;;;;;5072030;28;20457;-64
2022/04/18 13:08:09;;;;;;;3.60;3.30;;;26.30;55.30;;;;;;5072663;28;20526;-64
2022/04/18 13:10:37;;;;;;;3.97;3.72;;;25.80;57.10;;;;;;5073111;28;20167;-64
2022/04/18 13:13:05;;;;;;;5.13;3.78;;;25.80;55.00;;;;;;5072616;28;20196;-64
2022/04/18 13:15:31;;;;;;;3.60;3.30;;;25.40;57.10;;;;;;5071611;28;20553;-64
2022/04/18 13:17:59;;;;;;;5.57;3.83;;;25.40;59.70;;;;;;5072545;28;20552;-64